sensor_id;sensor_type;location;lat;lon;timestamp;pressure;altitude;pressure_sealevel;temperature;humidity
77939;BME280;67136;47.546;21.630;2023-06-19T00:00:15;100119.63;;;15.69;94.92
77939;BME280;67136;47.546;21.630;2023-06-19T00:03:18;100127.50;;;15.61;94.72
77939;BME280;67136;47.546;21.630;2023-06-19T00:06:21;100121.91;;;15.64;95.78
77939;BME280;67136;47.546;21.630;2023-06-19T00:09:24;100118.28;;;15.65;95.92
77939;BME280;67136;47.546;21.630;2023-06-19T00:12:26;100125.34;;;15.56;95.92
77939;BME280;67136;47.546;21.630;2023-06-19T00:15:29;100123.88;;;15.54;95.65
77939;BME280;67136;47.546;21.630;2023-06-19T00:18:32;100127.16;;;15.56;96.59
77939;BME280;67136;47.546;21.630;2023-06-19T00:21:42;100121.53;;;15.51;96.06
77939;BME280;67136;47.546;21.630;2023-06-19T00:24:45;100125.00;;;15.43;95.90
77939;BME280;67136;47.546;21.630;2023-06-19T00:27:48;100127.12;;;15.40;96.10
77939;BME280;67136;47.546;21.630;2023-06-19T00:30:50;100126.59;;;15.36;97.23
77939;BME280;67136;47.546;21.630;2023-06-19T00:33:55;100131.69;;;15.30;97.14
77939;BME280;67136;47.546;21.630;2023-06-19T00:36:59;100127.88;;;15.32;98.21
77939;BME280;67136;47.546;21.630;2023-06-19T00:40:03;100128.37;;;15.28;97.58
77939;BME280;67136;47.546;21.630;2023-06-19T00:43:06;100126.41;;;15.22;97.34
77939;BME280;67136;47.546;21.630;2023-06-19T00:46:10;100129.50;;;15.17;97.89
77939;BME280;67136;47.546;21.630;2023-06-19T00:49:14;100123.94;;;15.20;98.93
77939;BME280;67136;47.546;21.630;2023-06-19T00:52:17;100124.56;;;15.14;98.57
77939;BME280;67136;47.546;21.630;2023-06-19T00:55:21;100125.06;;;15.18;99.19
77939;BME280;67136;47.546;21.630;2023-06-19T00:58:24;100125.53;;;15.13;99.79
77939;BME280;67136;47.546;21.630;2023-06-19T01:01:29;100125.72;;;15.12;99.24
77939;BME280;67136;47.546;21.630;2023-06-19T01:04:32;100131.31;;;15.09;99.58
77939;BME280;67136;47.546;21.630;2023-06-19T01:07:41;100125.53;;;15.05;99.48
77939;BME280;67136;47.546;21.630;2023-06-19T01:10:50;100129.75;;;14.98;99.74
77939;BME280;67136;47.546;21.630;2023-06-19T01:13:58;100130.22;;;14.93;100.00
77939;BME280;67136;47.546;21.630;2023-06-19T01:17:08;100129.88;;;14.88;100.00
77939;BME280;67136;47.546;21.630;2023-06-19T01:20:11;100131.53;;;14.89;100.00
77939;BME280;67136;47.546;21.630;2023-06-19T01:23:14;100126.59;;;14.86;100.00
77939;BME280;67136;47.546;21.630;2023-06-19T01:26:17;100131.84;;;14.86;100.00
77939;BME280;67136;47.546;21.630;2023-06-19T01:29:21;100138.75;;;14.87;100.00
77939;BME280;67136;47.546;21.630;2023-06-19T01:35:35;100131.16;;;14.76;100.00
77939;BME280;67136;47.546;21.630;2023-06-19T01:38:39;100130.12;;;14.69;100.00
77939;BME280;67136;47.546;21.630;2023-06-19T01:41:42;100133.38;;;14.63;100.00
77939;BME280;67136;47.546;21.630;2023-06-19T01:44:46;100136.31;;;14.60;100.00
77939;BME280;67136;47.546;21.630;2023-06-19T01:47:49;100132.34;;;14.56;100.00
77939;BME280;67136;47.546;21.630;2023-06-19T01:50:52;100133.62;;;14.52;100.00
77939;BME280;67136;47.546;21.630;2023-06-19T01:53:55;100131.16;;;14.51;100.00
77939;BME280;67136;47.546;21.630;2023-06-19T01:56:58;100134.75;;;14.50;100.00
77939;BME280;67136;47.546;21.630;2023-06-19T02:00:02;100128.69;;;14.49;100.00
77939;BME280;67136;47.546;21.630;2023-06-19T02:03:14;100136.53;;;14.41;100.00
77939;BME280;67136;47.546;21.630;2023-06-19T02:06:17;100134.50;;;14.35;100.00
77939;BME280;67136;47.546;21.630;2023-06-19T02:09:21;100132.19;;;14.32;100.00
77939;BME280;67136;47.546;21.630;2023-06-19T02:12:24;100131.87;;;14.35;100.00
77939;BME280;67136;47.546;21.630;2023-06-19T02:15:27;100133.84;;;14.33;100.00
77939;BME280;67136;47.546;21.630;2023-06-19T02:18:30;100131.69;;;14.29;100.00
77939;BME280;67136;47.546;21.630;2023-06-19T02:21:33;100138.87;;;14.27;100.00
77939;BME280;67136;47.546;21.630;2023-06-19T02:24:35;100142.50;;;14.26;100.00
77939;BME280;67136;47.546;21.630;2023-06-19T02:27:39;100141.66;;;14.25;100.00
77939;BME280;67136;47.546;21.630;2023-06-19T02:30:43;100142.25;;;14.19;100.00
77939;BME280;67136;47.546;21.630;2023-06-19T02:33:46;100139.94;;;14.16;100.00
77939;BME280;67136;47.546;21.630;2023-06-19T02:36:48;100139.56;;;14.11;100.00
77939;BME280;67136;47.546;21.630;2023-06-19T02:39:51;100140.69;;;14.09;100.00
77939;BME280;67136;47.546;21.630;2023-06-19T02:42:53;100144.38;;;14.16;100.00
77939;BME280;67136;47.546;21.630;2023-06-19T02:45:56;100143.38;;;14.17;100.00
77939;BME280;67136;47.546;21.630;2023-06-19T02:48:59;100145.22;;;14.16;100.00
77939;BME280;67136;47.546;21.630;2023-06-19T02:52:04;100145.22;;;14.16;100.00
77939;BME280;67136;47.546;21.630;2023-06-19T02:55:07;100145.50;;;14.13;100.00
77939;BME280;67136;47.546;21.630;2023-06-19T02:58:11;100148.44;;;14.10;100.00
77939;BME280;67136;47.546;21.630;2023-06-19T03:01:13;100136.56;;;14.06;100.00
77939;BME280;67136;47.546;21.630;2023-06-19T03:04:18;100137.38;;;14.07;100.00
77939;BME280;67136;47.546;21.630;2023-06-19T03:07:23;100137.38;;;14.07;100.00
77939;BME280;67136;47.546;21.630;2023-06-19T03:10:31;100137.91;;;14.10;100.00
77939;BME280;67136;47.546;21.630;2023-06-19T03:13:53;100142.56;;;14.16;100.00
77939;BME280;67136;47.546;21.630;2023-06-19T03:16:56;100147.91;;;14.24;100.00
77939;BME280;67136;47.546;21.630;2023-06-19T03:19:58;100155.09;;;14.22;100.00
77939;BME280;67136;47.546;21.630;2023-06-19T03:23:01;100150.53;;;14.24;100.00
77939;BME280;67136;47.546;21.630;2023-06-19T03:26:04;100151.88;;;14.28;100.00
77939;BME280;67136;47.546;21.630;2023-06-19T03:29:07;100156.53;;;14.34;100.00
77939;BME280;67136;47.546;21.630;2023-06-19T03:32:10;100165.16;;;14.44;100.00
77939;BME280;67136;47.546;21.630;2023-06-19T03:35:13;100158.59;;;14.48;100.00
77939;BME280;67136;47.546;21.630;2023-06-19T03:38:17;100158.97;;;14.53;100.00
77939;BME280;67136;47.546;21.630;2023-06-19T03:41:21;100161.31;;;14.56;100.00
77939;BME280;67136;47.546;21.630;2023-06-19T03:44:24;100153.09;;;14.59;100.00
77939;BME280;67136;47.546;21.630;2023-06-19T03:47:28;100153.81;;;14.69;100.00
77939;BME280;67136;47.546;21.630;2023-06-19T03:50:30;100145.28;;;14.75;100.00
77939;BME280;67136;47.546;21.630;2023-06-19T03:53:34;100155.19;;;14.81;100.00
77939;BME280;67136;47.546;21.630;2023-06-19T03:56:36;100152.59;;;14.89;100.00
77939;BME280;67136;47.546;21.630;2023-06-19T03:59:42;100161.22;;;15.00;99.54
77939;BME280;67136;47.546;21.630;2023-06-19T04:02:45;100157.94;;;15.06;99.05
77939;BME280;67136;47.546;21.630;2023-06-19T04:05:50;100159.78;;;15.13;98.57
77939;BME280;67136;47.546;21.630;2023-06-19T04:08:53;100150.78;;;15.24;98.12
77939;BME280;67136;47.546;21.630;2023-06-19T04:11:57;100152.59;;;15.31;97.69
77939;BME280;67136;47.546;21.630;2023-06-19T04:15:00;100154.44;;;15.39;97.28
77939;BME280;67136;47.546;21.630;2023-06-19T04:18:05;100157.12;;;15.47;96.88
77939;BME280;67136;47.546;21.630;2023-06-19T04:21:08;100155.50;;;15.54;96.63
77939;BME280;67136;47.546;21.630;2023-06-19T04:24:13;100158.81;;;15.64;96.09
77939;BME280;67136;47.546;21.630;2023-06-19T04:27:15;100157.84;;;15.73;95.82
77939;BME280;67136;47.546;21.630;2023-06-19T04:30:18;100160.97;;;15.84;95.29
77939;BME280;67136;47.546;21.630;2023-06-19T04:33:23;100164.44;;;15.93;94.89
77939;BME280;67136;47.546;21.630;2023-06-19T04:36:27;100171.06;;;15.97;94.43
77939;BME280;67136;47.546;21.630;2023-06-19T04:39:30;100175.03;;;16.09;93.88
77939;BME280;67136;47.546;21.630;2023-06-19T04:42:32;100176.81;;;16.16;93.31
77939;BME280;67136;47.546;21.630;2023-06-19T04:45:35;100164.78;;;16.22;92.80
77939;BME280;67136;47.546;21.630;2023-06-19T04:48:37;100175.00;;;16.25;92.45
77939;BME280;67136;47.546;21.630;2023-06-19T04:51:42;100176.00;;;16.24;92.27
77939;BME280;67136;47.546;21.630;2023-06-19T04:54:45;100183.25;;;16.30;91.54
77939;BME280;67136;47.546;21.630;2023-06-19T04:57:47;100170.06;;;16.38;91.86
77939;BME280;67136;47.546;21.630;2023-06-19T05:00:50;100172.06;;;16.52;91.29
77939;BME280;67136;47.546;21.630;2023-06-19T05:03:54;100180.94;;;16.67;90.61
77939;BME280;67136;47.546;21.630;2023-06-19T05:06:59;100177.16;;;16.70;90.24
77939;BME280;67136;47.546;21.630;2023-06-19T05:10:01;100178.09;;;16.77;89.84
77939;BME280;67136;47.546;21.630;2023-06-19T05:13:04;100179.91;;;16.84;89.42
77939;BME280;67136;47.546;21.630;2023-06-19T05:16:07;100185.50;;;16.97;89.08
77939;BME280;67136;47.546;21.630;2023-06-19T05:19:10;100192.16;;;17.24;88.28
77939;BME280;67136;47.546;21.630;2023-06-19T05:22:12;100189.09;;;17.51;87.16
77939;BME280;67136;47.546;21.630;2023-06-19T05:25:15;100197.44;;;17.71;86.43
77939;BME280;67136;47.546;21.630;2023-06-19T05:28:18;100192.87;;;17.87;85.81
77939;BME280;67136;47.546;21.630;2023-06-19T05:31:21;100198.44;;;17.92;84.35
77939;BME280;67136;47.546;21.630;2023-06-19T05:34:24;100202.44;;;17.88;83.37
77939;BME280;67136;47.546;21.630;2023-06-19T05:37:26;100205.78;;;18.05;83.67
77939;BME280;67136;47.546;21.630;2023-06-19T05:40:32;100212.44;;;18.23;82.61
77939;BME280;67136;47.546;21.630;2023-06-19T05:43:36;100219.44;;;18.39;81.84
77939;BME280;67136;47.546;21.630;2023-06-19T05:46:38;100220.50;;;18.52;81.38
77939;BME280;67136;47.546;21.630;2023-06-19T05:49:41;100224.19;;;18.66;80.81
77939;BME280;67136;47.546;21.630;2023-06-19T05:52:43;100221.94;;;18.92;79.97
77939;BME280;67136;47.546;21.630;2023-06-19T05:55:46;100227.06;;;19.23;79.07
77939;BME280;67136;47.546;21.630;2023-06-19T05:58:49;100225.34;;;19.44;77.62
77939;BME280;67136;47.546;21.630;2023-06-19T06:01:52;100230.13;;;19.85;75.27
77939;BME280;67136;47.546;21.630;2023-06-19T06:04:55;100231.22;;;20.11;74.08
77939;BME280;67136;47.546;21.630;2023-06-19T06:07:58;100236.78;;;20.58;72.45
77939;BME280;67136;47.546;21.630;2023-06-19T06:11:02;100240.22;;;21.01;69.76
77939;BME280;67136;47.546;21.630;2023-06-19T06:14:04;100245.66;;;21.61;68.64
77939;BME280;67136;47.546;21.630;2023-06-19T06:17:07;100240.22;;;21.82;67.47
77939;BME280;67136;47.546;21.630;2023-06-19T06:20:10;100237.09;;;22.46;65.33
77939;BME280;67136;47.546;21.630;2023-06-19T06:23:15;100240.00;;;22.90;63.41
77939;BME280;67136;47.546;21.630;2023-06-19T06:26:18;100242.78;;;23.21;61.62
77939;BME280;67136;47.546;21.630;2023-06-19T06:29:21;100247.06;;;23.99;60.07
77939;BME280;67136;47.546;21.630;2023-06-19T06:32:23;100248.28;;;24.58;56.93
77939;BME280;67136;47.546;21.630;2023-06-19T06:35:26;100249.28;;;24.89;56.65
77939;BME280;67136;47.546;21.630;2023-06-19T06:38:29;100252.97;;;25.37;55.73
77939;BME280;67136;47.546;21.630;2023-06-19T06:41:32;100254.63;;;26.04;54.12
77939;BME280;67136;47.546;21.630;2023-06-19T06:44:35;100256.94;;;26.94;51.81
77939;BME280;67136;47.546;21.630;2023-06-19T06:47:37;100265.38;;;26.15;51.57
77939;BME280;67136;47.546;21.630;2023-06-19T06:50:42;100256.94;;;26.71;50.41
77939;BME280;67136;47.546;21.630;2023-06-19T06:53:45;100257.25;;;27.44;48.78
77939;BME280;67136;47.546;21.630;2023-06-19T06:56:48;100258.22;;;27.89;47.76
77939;BME280;67136;47.546;21.630;2023-06-19T06:59:51;100257.47;;;27.54;48.45
77939;BME280;67136;47.546;21.630;2023-06-19T07:02:53;100245.81;;;27.14;49.30
77939;BME280;67136;47.546;21.630;2023-06-19T07:05:57;100246.69;;;28.05;47.95
77939;BME280;67136;47.546;21.630;2023-06-19T07:08:59;100240.78;;;27.52;49.00
77939;BME280;67136;47.546;21.630;2023-06-19T07:12:02;100248.47;;;27.60;48.73
77939;BME280;67136;47.546;21.630;2023-06-19T07:15:07;100244.00;;;28.05;47.70
77939;BME280;67136;47.546;21.630;2023-06-19T07:18:10;100242.94;;;29.00;45.28
77939;BME280;67136;47.546;21.630;2023-06-19T07:21:14;100253.06;;;28.60;46.32
77939;BME280;67136;47.546;21.630;2023-06-19T07:24:17;100253.94;;;29.97;43.78
77939;BME280;67136;47.546;21.630;2023-06-19T07:27:20;100252.91;;;29.16;43.48
77939;BME280;67136;47.546;21.630;2023-06-19T07:30:23;100258.56;;;29.37;44.10
77939;BME280;67136;47.546;21.630;2023-06-19T07:33:26;100259.03;;;30.47;41.15
77939;BME280;67136;47.546;21.630;2023-06-19T07:36:29;100262.88;;;29.59;42.48
77939;BME280;67136;47.546;21.630;2023-06-19T07:39:31;100264.97;;;30.22;41.97
77939;BME280;67136;47.546;21.630;2023-06-19T07:42:34;100271.50;;;30.26;40.77
77939;BME280;67136;47.546;21.630;2023-06-19T07:45:36;100262.25;;;31.58;39.13
77939;BME280;67136;47.546;21.630;2023-06-19T07:48:39;100261.91;;;31.03;39.92
77939;BME280;67136;47.546;21.630;2023-06-19T07:51:42;100263.47;;;31.93;38.38
77939;BME280;67136;47.546;21.630;2023-06-19T07:54:55;100259.72;;;31.99;38.12
77939;BME280;67136;47.546;21.630;2023-06-19T07:57:58;100254.91;;;33.06;36.20
77939;BME280;67136;47.546;21.630;2023-06-19T08:01:00;100258.38;;;32.06;37.29
77939;BME280;67136;47.546;21.630;2023-06-19T08:04:03;100255.41;;;32.28;36.78
77939;BME280;67136;47.546;21.630;2023-06-19T08:07:06;100252.44;;;32.29;36.46
77939;BME280;67136;47.546;21.630;2023-06-19T08:10:09;100248.69;;;32.96;35.86
77939;BME280;67136;47.546;21.630;2023-06-19T08:13:29;100256.81;;;32.75;36.45
77939;BME280;67136;47.546;21.630;2023-06-19T08:16:32;100262.31;;;34.23;33.88
77939;BME280;67136;47.546;21.630;2023-06-19T08:19:34;100262.34;;;33.59;34.14
77939;BME280;67136;47.546;21.630;2023-06-19T08:22:37;100255.16;;;33.20;34.84
77939;BME280;67136;47.546;21.630;2023-06-19T08:25:40;100266.53;;;34.01;34.12
77939;BME280;67136;47.546;21.630;2023-06-19T08:28:42;100263.13;;;34.24;32.76
77939;BME280;67136;47.546;21.630;2023-06-19T08:31:45;100264.50;;;33.67;33.88
77939;BME280;67136;47.546;21.630;2023-06-19T08:34:48;100253.63;;;35.17;30.60
77939;BME280;67136;47.546;21.630;2023-06-19T08:37:53;100257.22;;;34.84;31.38
77939;BME280;67136;47.546;21.630;2023-06-19T08:40:57;100247.78;;;35.29;30.22
77939;BME280;67136;47.546;21.630;2023-06-19T08:43:59;100247.88;;;35.89;29.53
77939;BME280;67136;47.546;21.630;2023-06-19T08:47:03;100251.63;;;35.51;29.84
77939;BME280;67136;47.546;21.630;2023-06-19T08:50:06;100244.41;;;36.72;28.15
77939;BME280;67136;47.546;21.630;2023-06-19T08:53:11;100258.09;;;35.32;29.91
77939;BME280;67136;47.546;21.630;2023-06-19T08:56:14;100245.38;;;36.30;28.21
77939;BME280;67136;47.546;21.630;2023-06-19T08:59:17;100247.22;;;36.67;28.05
77939;BME280;67136;47.546;21.630;2023-06-19T09:02:20;100249.81;;;36.58;27.36
77939;BME280;67136;47.546;21.630;2023-06-19T09:05:23;100242.09;;;35.72;27.63
77939;BME280;67136;47.546;21.630;2023-06-19T09:08:27;100237.06;;;35.61;28.71
77939;BME280;67136;47.546;21.630;2023-06-19T09:11:30;100238.47;;;37.56;26.51
77939;BME280;67136;47.546;21.630;2023-06-19T09:14:40;100238.16;;;38.20;25.36
77939;BME280;67136;47.546;21.630;2023-06-19T09:17:43;100239.25;;;38.41;24.04
77939;BME280;67136;47.546;21.630;2023-06-19T09:20:47;100235.19;;;35.14;27.70
77939;BME280;67136;47.546;21.630;2023-06-19T09:23:51;100235.00;;;37.78;24.56
77939;BME280;67136;47.546;21.630;2023-06-19T09:27:05;100237.72;;;36.83;25.67
77939;BME280;67136;47.546;21.630;2023-06-19T09:30:15;100239.69;;;37.37;24.83
77939;BME280;67136;47.546;21.630;2023-06-19T09:33:18;100242.09;;;37.11;25.44
77939;BME280;67136;47.546;21.630;2023-06-19T09:36:23;100232.56;;;37.22;25.32
77939;BME280;67136;47.546;21.630;2023-06-19T09:39:27;100234.91;;;36.88;25.61
77939;BME280;67136;47.546;21.630;2023-06-19T09:42:34;100229.31;;;35.02;28.45
77939;BME280;67136;47.546;21.630;2023-06-19T09:45:37;100235.44;;;36.20;27.25
77939;BME280;67136;47.546;21.630;2023-06-19T09:48:44;100233.69;;;36.62;26.50
77939;BME280;67136;47.546;21.630;2023-06-19T09:51:47;100235.19;;;37.68;24.10
77939;BME280;67136;47.546;21.630;2023-06-19T09:54:52;100238.16;;;38.42;23.92
77939;BME280;67136;47.546;21.630;2023-06-19T09:57:55;100233.41;;;38.79;23.26
77939;BME280;67136;47.546;21.630;2023-06-19T10:00:58;100234.75;;;40.19;22.16
77939;BME280;67136;47.546;21.630;2023-06-19T10:04:04;100236.50;;;40.75;21.71
77939;BME280;67136;47.546;21.630;2023-06-19T10:07:16;100229.56;;;39.58;22.04
77939;BME280;67136;47.546;21.630;2023-06-19T10:10:24;100235.91;;;40.52;19.62
77939;BME280;67136;47.546;21.630;2023-06-19T10:13:34;100231.19;;;41.25;18.38
77939;BME280;67136;47.546;21.630;2023-06-19T10:16:37;100226.13;;;41.27;18.56
77939;BME280;67136;47.546;21.630;2023-06-19T10:19:49;100223.81;;;40.19;19.76
77939;BME280;67136;47.546;21.630;2023-06-19T10:26:06;100218.47;;;40.14;20.03
77939;BME280;67136;47.546;21.630;2023-06-19T10:29:16;100216.06;;;40.04;21.02
77939;BME280;67136;47.546;21.630;2023-06-19T10:32:21;100217.06;;;41.35;18.75
77939;BME280;67136;47.546;21.630;2023-06-19T10:35:26;100213.44;;;41.92;19.07
77939;BME280;67136;47.546;21.630;2023-06-19T10:38:28;100208.28;;;39.07;20.31
77939;BME280;67136;47.546;21.630;2023-06-19T10:41:32;100205.91;;;40.47;19.83
77939;BME280;67136;47.546;21.630;2023-06-19T10:44:35;100201.25;;;37.06;23.51
77939;BME280;67136;47.546;21.630;2023-06-19T10:47:40;100203.34;;;35.38;25.62
77939;BME280;67136;47.546;21.630;2023-06-19T10:50:42;100199.44;;;34.40;26.72
77939;BME280;67136;47.546;21.630;2023-06-19T10:53:45;100204.38;;;36.21;24.10
77939;BME280;67136;47.546;21.630;2023-06-19T10:56:48;100201.44;;;38.35;21.64
77939;BME280;67136;47.546;21.630;2023-06-19T10:59:51;100197.19;;;39.51;20.85
77939;BME280;67136;47.546;21.630;2023-06-19T11:02:58;100195.81;;;40.68;19.83
77939;BME280;67136;47.546;21.630;2023-06-19T11:06:01;100199.00;;;38.33;21.45
77939;BME280;67136;47.546;21.630;2023-06-19T11:09:07;100182.91;;;38.10;22.30
77939;BME280;67136;47.546;21.630;2023-06-19T11:12:11;100191.50;;;39.00;20.68
77939;BME280;67136;47.546;21.630;2023-06-19T11:15:14;100193.53;;;40.07;20.12
77939;BME280;67136;47.546;21.630;2023-06-19T11:18:18;100188.78;;;38.70;21.06
77939;BME280;67136;47.546;21.630;2023-06-19T11:21:20;100193.28;;;41.88;18.10
77939;BME280;67136;47.546;21.630;2023-06-19T11:24:23;100186.25;;;40.11;19.79
77939;BME280;67136;47.546;21.630;2023-06-19T11:27:26;100178.47;;;40.56;19.07
77939;BME280;67136;47.546;21.630;2023-06-19T11:30:33;100185.09;;;41.59;18.31
77939;BME280;67136;47.546;21.630;2023-06-19T11:33:36;100181.00;;;41.16;17.89
77939;BME280;67136;47.546;21.630;2023-06-19T11:36:41;100185.63;;;41.73;16.92
77939;BME280;67136;47.546;21.630;2023-06-19T11:39:45;100177.62;;;42.66;14.84
77939;BME280;67136;47.546;21.630;2023-06-19T11:42:52;100171.72;;;43.88;14.36
77939;BME280;67136;47.546;21.630;2023-06-19T11:46:06;100157.88;;;39.00;17.72
77939;BME280;67136;47.546;21.630;2023-06-19T11:49:15;100158.41;;;39.10;17.71
77939;BME280;67136;47.546;21.630;2023-06-19T11:52:21;100158.97;;;37.58;19.10
77939;BME280;67136;47.546;21.630;2023-06-19T11:55:24;100160.62;;;40.07;17.29
77939;BME280;67136;47.546;21.630;2023-06-19T11:58:26;100146.63;;;38.62;18.54
77939;BME280;67136;47.546;21.630;2023-06-19T12:01:32;100155.63;;;39.58;18.48
77939;BME280;67136;47.546;21.630;2023-06-19T12:04:36;100143.44;;;39.08;18.79
77939;BME280;67136;47.546;21.630;2023-06-19T12:07:38;100155.69;;;41.31;16.98
77939;BME280;67136;47.546;21.630;2023-06-19T12:10:41;100150.44;;;40.25;17.78
77939;BME280;67136;47.546;21.630;2023-06-19T12:13:44;100152.09;;;40.09;18.22
77939;BME280;67136;47.546;21.630;2023-06-19T12:16:47;100144.41;;;40.57;17.75
77939;BME280;67136;47.546;21.630;2023-06-19T12:19:50;100138.69;;;41.08;17.30
77939;BME280;67136;47.546;21.630;2023-06-19T12:22:52;100143.69;;;40.22;17.69
77939;BME280;67136;47.546;21.630;2023-06-19T12:25:55;100142.72;;;41.40;16.45
77939;BME280;67136;47.546;21.630;2023-06-19T12:28:58;100141.34;;;41.75;16.17
77939;BME280;67136;47.546;21.630;2023-06-19T12:32:02;100135.00;;;42.96;14.88
77939;BME280;67136;47.546;21.630;2023-06-19T12:35:07;100137.78;;;41.95;15.49
77939;BME280;67136;47.546;21.630;2023-06-19T12:38:10;100132.59;;;42.71;15.15
77939;BME280;67136;47.546;21.630;2023-06-19T12:41:13;100136.00;;;41.90;15.97
77939;BME280;67136;47.546;21.630;2023-06-19T12:44:15;100126.16;;;41.57;15.82
77939;BME280;67136;47.546;21.630;2023-06-19T12:47:19;100122.94;;;41.26;16.43
77939;BME280;67136;47.546;21.630;2023-06-19T12:50:23;100119.19;;;39.75;17.73
77939;BME280;67136;47.546;21.630;2023-06-19T12:53:26;100114.63;;;39.10;18.57
77939;BME280;67136;47.546;21.630;2023-06-19T12:56:31;100113.97;;;39.13;18.72
77939;BME280;67136;47.546;21.630;2023-06-19T12:59:34;100111.66;;;39.97;17.59
77939;BME280;67136;47.546;21.630;2023-06-19T13:02:36;100099.38;;;40.03;17.27
77939;BME280;67136;47.546;21.630;2023-06-19T13:05:39;100110.00;;;39.71;17.34
77939;BME280;67136;47.546;21.630;2023-06-19T13:08:42;100107.41;;;39.23;18.40
77939;BME280;67136;47.546;21.630;2023-06-19T13:11:45;100106.31;;;39.58;18.20
77939;BME280;67136;47.546;21.630;2023-06-19T13:14:47;100106.31;;;39.58;18.08
77939;BME280;67136;47.546;21.630;2023-06-19T13:17:50;100099.50;;;39.38;18.61
77939;BME280;67136;47.546;21.630;2023-06-19T13:20:53;100096.12;;;38.68;19.25
77939;BME280;67136;47.546;21.630;2023-06-19T13:23:55;100096.56;;;36.75;20.87
77939;BME280;67136;47.546;21.630;2023-06-19T13:26:58;100101.84;;;35.19;22.97
77939;BME280;67136;47.546;21.630;2023-06-19T13:30:01;100099.06;;;35.24;23.34
77939;BME280;67136;47.546;21.630;2023-06-19T13:33:04;100099.47;;;34.94;23.59
77939;BME280;67136;47.546;21.630;2023-06-19T13:36:07;100101.41;;;33.20;25.69
77939;BME280;67136;47.546;21.630;2023-06-19T13:39:10;100102.91;;;32.88;25.86
77939;BME280;67136;47.546;21.630;2023-06-19T13:42:13;100095.97;;;32.46;26.36
77939;BME280;67136;47.546;21.630;2023-06-19T13:45:16;100093.28;;;32.11;26.58
77939;BME280;67136;47.546;21.630;2023-06-19T13:48:19;100092.75;;;31.89;26.87
77939;BME280;67136;47.546;21.630;2023-06-19T13:51:21;100093.22;;;31.56;27.80
77939;BME280;67136;47.546;21.630;2023-06-19T13:54:24;100088.13;;;32.25;27.01
77939;BME280;67136;47.546;21.630;2023-06-19T13:57:30;100092.47;;;32.31;27.25
77939;BME280;67136;47.546;21.630;2023-06-19T14:00:32;100093.94;;;32.97;26.67
77939;BME280;67136;47.546;21.630;2023-06-19T14:03:38;100085.84;;;34.70;24.87
77939;BME280;67136;47.546;21.630;2023-06-19T14:06:43;100084.37;;;35.62;23.87
77939;BME280;67136;47.546;21.630;2023-06-19T14:09:46;100093.81;;;35.51;23.21
77939;BME280;67136;47.546;21.630;2023-06-19T14:12:48;100082.31;;;35.91;23.04
77939;BME280;67136;47.546;21.630;2023-06-19T14:15:53;100090.56;;;35.49;23.49
77939;BME280;67136;47.546;21.630;2023-06-19T14:18:55;100089.66;;;35.35;23.16
77939;BME280;67136;47.546;21.630;2023-06-19T14:21:58;100080.59;;;34.55;24.13
77939;BME280;67136;47.546;21.630;2023-06-19T14:25:00;100077.31;;;34.30;24.97
77939;BME280;67136;47.546;21.630;2023-06-19T14:28:05;100086.62;;;34.76;24.48
77939;BME280;67136;47.546;21.630;2023-06-19T14:31:08;100084.41;;;35.01;23.71
77939;BME280;67136;47.546;21.630;2023-06-19T14:34:10;100081.97;;;33.08;26.46
77939;BME280;67136;47.546;21.630;2023-06-19T14:37:13;100080.00;;;32.40;27.43
77939;BME280;67136;47.546;21.630;2023-06-19T14:40:15;100076.22;;;32.01;28.17
77939;BME280;67136;47.546;21.630;2023-06-19T14:43:18;100084.81;;;31.37;29.48
77939;BME280;67136;47.546;21.630;2023-06-19T14:46:21;100078.69;;;30.95;30.15
77939;BME280;67136;47.546;21.630;2023-06-19T14:49:39;100077.47;;;30.24;31.48
77939;BME280;67136;47.546;21.630;2023-06-19T14:52:41;100079.62;;;30.22;31.59
77939;BME280;67136;47.546;21.630;2023-06-19T14:55:44;100073.97;;;30.66;30.92
77939;BME280;67136;47.546;21.630;2023-06-19T14:58:48;100073.56;;;30.42;31.83
77939;BME280;67136;47.546;21.630;2023-06-19T15:01:50;100071.37;;;30.81;31.25
77939;BME280;67136;47.546;21.630;2023-06-19T15:04:53;100068.28;;;30.67;31.31
77939;BME280;67136;47.546;21.630;2023-06-19T15:08:07;100072.69;;;30.78;30.91
77939;BME280;67136;47.546;21.630;2023-06-19T15:11:12;100066.66;;;30.61;31.03
77939;BME280;67136;47.546;21.630;2023-06-19T15:14:14;100068.50;;;30.56;31.13
77939;BME280;67136;47.546;21.630;2023-06-19T15:17:17;100066.22;;;30.01;31.83
77939;BME280;67136;47.546;21.630;2023-06-19T15:20:19;100072.56;;;29.58;31.96
77939;BME280;67136;47.546;21.630;2023-06-19T15:23:23;100070.72;;;29.10;32.87
77939;BME280;67136;47.546;21.630;2023-06-19T15:26:25;100074.66;;;29.24;32.97
77939;BME280;67136;47.546;21.630;2023-06-19T15:29:28;100077.81;;;29.43;33.18
77939;BME280;67136;47.546;21.630;2023-06-19T15:32:30;100079.34;;;29.34;33.19
77939;BME280;67136;47.546;21.630;2023-06-19T15:35:33;100067.84;;;29.44;33.48
77939;BME280;67136;47.546;21.630;2023-06-19T15:38:36;100071.34;;;29.17;33.81
77939;BME280;67136;47.546;21.630;2023-06-19T15:41:43;100072.84;;;29.08;33.98
77939;BME280;67136;47.546;21.630;2023-06-19T15:44:47;100074.41;;;29.04;33.68
77939;BME280;67136;47.546;21.630;2023-06-19T15:47:50;100073.47;;;28.94;33.92
77939;BME280;67136;47.546;21.630;2023-06-19T15:50:52;100072.50;;;28.83;34.19